Time;durP1;ratioP1;P1;durP2;ratioP2;P2;SDS_P1;SDS_P2;PMS_P1;PMS_P2;Temp;Humidity;BMP_temperature;BMP_pressure;BME280_temperature;BME280_humidity;BME280_pressure;Samples;Min_cycle;Max_cycle;Signal;HPM_P1;HPM_P2
2022/11/16 00:00:24;;;;;;;4.77;3.90;;;;;;;;;;5024960;28;20414;-43
2022/11/16 00:02:50;;;;;;;4.07;3.77;;;;;;;;;;5025767;28;20440;-43
2022/11/16 00:05:19;;;;;;;3.73;3.20;;;;;;;;;;5019516;28;20442;-43
2022/11/16 00:07:45;;;;;;;4.67;4.20;;;;;;;;;;5025538;28;20490;-42
2022/11/16 00:10:12;;;;;;;5.20;4.03;;;;;;;;;;5015612;28;20508;-42
2022/11/16 00:12:38;;;;;;;4.67;4.00;;;;;;;;;;5024384;28;20481;-42
2022/11/16 00:15:08;;;;;;;5.03;4.17;;;;;;;;;;5025001;28;20408;-42
2022/11/16 00:17:34;;;;;;;5.90;4.03;;;;;;;;;;5017178;28;20479;-43
2022/11/16 00:20:00;;;;;;;5.33;4.63;;;;;;;;;;5022853;28;20411;-42
2022/11/16 00:22:26;;;;;;;4.17;3.73;;;;;;;;;;5021818;28;20527;-42
2022/11/16 00:24:52;;;;;;;4.70;4.17;;;;;;;;;;5028109;28;20416;-42
2022/11/16 00:27:18;;;;;;;6.30;4.20;;;;;;;;;;5022727;28;20411;-43
2022/11/16 00:29:43;;;;;;;5.87;4.07;;;;;;;;;;5020099;28;20489;-43
2022/11/16 00:32:11;;;;;;;4.83;4.43;;;;;;;;;;5022782;28;20429;-43
2022/11/16 00:34:37;;;;;;;5.73;5.07;;;;;;;;;;5020660;28;20411;-43
2022/11/16 00:37:03;;;;;;;5.10;4.60;;;;;;;;;;5024114;28;20784;-42
2022/11/16 00:39:28;;;;;;;9.07;4.80;;;;;;;;;;5025447;28;20417;-43
2022/11/16 00:41:54;;;;;;;5.43;5.03;;;;;;;;;;5025885;28;20489;-43
2022/11/16 00:44:20;;;;;;;5.90;4.47;;;;;;;;;;5021243;28;20414;-42
2022/11/16 00:46:46;;;;;;;5.97;4.07;;;;;;;;;;5018148;28;20518;-43
2022/11/16 00:49:12;;;;;;;7.00;4.67;;;;;;;;;;5024631;28;20554;-43
2022/11/16 00:51:38;;;;;;;5.57;4.57;;;;;;;;;;5023625;28;20455;-42
2022/11/16 00:54:05;;;;;;;6.07;4.93;;;;;;;;;;5023883;28;20471;-42
2022/11/16 00:56:31;;;;;;;5.40;4.73;;;;;;;;;;5023319;28;20413;-43
2022/11/16 00:58:57;;;;;;;5.67;4.80;;;;;;;;;;5024375;28;20416;-43
2022/11/16 01:01:23;;;;;;;10.87;5.00;;;;;;;;;;5019283;28;20525;-43
2022/11/16 01:03:49;;;;;;;7.10;5.50;;;;;;;;;;5023993;28;20411;-42
2022/11/16 01:06:15;;;;;;;4.67;4.27;;;;;;;;;;5023444;28;20443;-42
2022/11/16 01:08:42;;;;;;;5.33;4.80;;;;;;;;;;5021617;28;20865;-43
2022/11/16 01:13:53;;;;;;;6.10;5.33;;;;;;;;;;5019649;28;20896;-42
2022/11/16 01:16:20;;;;;;;6.00;5.07;;;;;;;;;;5021267;28;20425;-43
2022/11/16 01:18:50;;;;;;;6.50;5.30;;;;;;;;;;5020891;28;20412;-43
2022/11/16 01:21:16;;;;;;;6.83;5.70;;;;;;;;;;5020570;28;20850;-43
2022/11/16 01:23:42;;;;;;;10.63;5.37;;;;;;;;;;5025401;28;20436;-43
2022/11/16 01:26:08;;;;;;;8.23;5.80;;;;;;;;;;5019170;28;20906;-43
2022/11/16 01:28:34;;;;;;;7.23;4.93;;;;;;;;;;5018855;28;20524;-43
2022/11/16 01:31:00;;;;;;;7.63;5.70;;;;;;;;;;5020170;28;20416;-43
2022/11/16 01:33:26;;;;;;;6.10;5.13;;;;;;;;;;5020881;28;20412;-42
2022/11/16 01:35:52;;;;;;;5.93;5.43;;;;;;;;;;5021362;28;20469;-43
2022/11/16 01:38:18;;;;;;;6.43;5.50;;;;;;;;;;5024443;28;20500;-43
2022/11/16 01:40:44;;;;;;;8.20;5.50;;;;;;;;;;5023308;28;20414;-42
2022/11/16 01:43:17;;;;;;;7.17;5.87;;;;;;;;;;5017262;28;20554;-43
2022/11/16 01:45:44;;;;;;;5.63;5.13;;;;;;;;;;5015870;28;20418;-43
2022/11/16 01:48:11;;;;;;;6.47;5.87;;;;;;;;;;5023725;28;20456;-43
2022/11/16 01:50:38;;;;;;;6.33;5.60;;;;;;;;;;5021324;28;20408;-43
2022/11/16 01:53:05;;;;;;;5.97;5.37;;;;;;;;;;5022819;28;20445;-42
2022/11/16 01:55:32;;;;;;;7.57;5.70;;;;;;;;;;5020844;28;20422;-43
2022/11/16 01:57:58;;;;;;;8.97;6.00;;;;;;;;;;5015694;28;20440;-43
2022/11/16 02:00:24;;;;;;;7.93;6.00;;;;;;;;;;5023318;28;20522;-43
2022/11/16 02:02:50;;;;;;;6.87;6.17;;;;;;;;;;5022247;28;20984;-44
2022/11/16 02:05:18;;;;;;;8.77;5.67;;;;;;;;;;5020917;28;20419;-43
2022/11/16 02:10:36;;;;;;;6.67;5.83;;;;;;;;;;5018998;28;20478;-43
2022/11/16 02:13:20;;;;;;;6.50;5.90;;;;;;;;;;5019041;28;20939;-43
2022/11/16 02:15:51;;;;;;;6.37;5.87;;;;;;;;;;5019905;28;20407;-43
2022/11/16 02:18:20;;;;;;;8.57;5.97;;;;;;;;;;5023408;28;20407;-42
2022/11/16 02:20:53;;;;;;;7.13;6.07;;;;;;;;;;5019738;28;20415;-43
2022/11/16 02:23:19;;;;;;;6.33;5.73;;;;;;;;;;5022298;28;20420;-43
2022/11/16 02:25:44;;;;;;;6.37;5.77;;;;;;;;;;5021683;28;20408;-42
2022/11/16 02:28:10;;;;;;;6.70;5.63;;;;;;;;;;5015317;28;20454;-43
2022/11/16 02:30:41;;;;;;;6.43;5.73;;;;;;;;;;5022940;28;20473;-43
2022/11/16 02:33:16;;;;;;;7.33;6.20;;;;;;;;;;5020119;28;20469;-43
2022/11/16 02:35:44;;;;;;;6.87;5.80;;;;;;;;;;5019224;28;20418;-42
2022/11/16 02:38:12;;;;;;;8.50;6.43;;;;;;;;;;5021645;28;20411;-43
2022/11/16 02:40:40;;;;;;;11.30;6.37;;;;;;;;;;5019519;28;20831;-43
2022/11/16 02:43:08;;;;;;;7.50;6.67;;;;;;;;;;5020030;28;20899;-43
2022/11/16 02:45:37;;;;;;;8.80;6.97;;;;;;;;;;5019583;28;20497;-43
2022/11/16 02:48:06;;;;;;;7.00;6.40;;;;;;;;;;5025003;28;20874;-43
2022/11/16 02:50:33;;;;;;;7.57;5.60;;;;;;;;;;5021148;28;20421;-43
2022/11/16 02:52:58;;;;;;;6.53;5.93;;;;;;;;;;5016177;28;20556;-43
2022/11/16 02:55:26;;;;;;;6.20;5.60;;;;;;;;;;5018980;28;20904;-44
2022/11/16 02:57:56;;;;;;;6.70;6.00;;;;;;;;;;5022405;28;20407;-42
2022/11/16 03:00:24;;;;;;;7.70;6.20;;;;;;;;;;5026968;28;20489;-43
2022/11/16 03:03:09;;;;;;;6.63;5.70;;;;;;;;;;5021508;28;20441;-42
2022/11/16 03:05:38;;;;;;;6.73;5.60;;;;;;;;;;5023920;28;20440;-42
2022/11/16 03:08:17;;;;;;;5.23;4.73;;;;;;;;;;5025728;28;20450;-42
2022/11/16 03:13:33;;;;;;;6.27;5.70;;;;;;;;;;5019320;28;20459;-43
2022/11/16 03:16:00;;;;;;;6.57;5.87;;;;;;;;;;5028406;28;20425;-42
2022/11/16 03:18:28;;;;;;;5.87;5.27;;;;;;;;;;5024673;28;20494;-42
2022/11/16 03:20:57;;;;;;;9.63;4.63;;;;;;;;;;5020054;28;20466;-42
2022/11/16 03:23:23;;;;;;;5.53;4.47;;;;;;;;;;5021670;28;20399;-43
2022/11/16 03:25:50;;;;;;;4.30;3.90;;;;;;;;;;5023410;28;20409;-44
2022/11/16 03:28:19;;;;;;;5.77;3.67;;;;;;;;;;5026346;28;20459;-42
2022/11/16 03:30:59;;;;;;;4.23;3.93;;;;;;;;;;5023189;28;20446;-43
2022/11/16 03:33:28;;;;;;;4.10;3.80;;;;;;;;;;5021251;28;20792;-43
2022/11/16 03:36:15;;;;;;;4.67;4.23;;;;;;;;;;5024948;28;20473;-43
2022/11/16 03:38:42;;;;;;;4.17;3.80;;;;;;;;;;5022816;28;20420;-42
2022/11/16 03:41:09;;;;;;;3.90;3.60;;;;;;;;;;5022601;28;20796;-44
2022/11/16 03:43:36;;;;;;;4.30;3.90;;;;;;;;;;5026712;28;20445;-42
2022/11/16 03:46:03;;;;;;;3.20;3.00;;;;;;;;;;5021607;28;20946;-42
2022/11/16 03:48:36;;;;;;;3.90;3.60;;;;;;;;;;5021950;28;20827;-43
2022/11/16 03:51:03;;;;;;;4.17;3.50;;;;;;;;;;5022911;28;20435;-43
2022/11/16 03:53:29;;;;;;;3.70;3.40;;;;;;;;;;5022566;28;20890;-43
2022/11/16 03:55:55;;;;;;;3.40;3.10;;;;;;;;;;5023741;28;20414;-43
2022/11/16 03:58:21;;;;;;;3.60;3.30;;;;;;;;;;5026321;28;20454;-43
2022/11/16 04:00:47;;;;;;;3.93;3.63;;;;;;;;;;5026064;28;20443;-42
2022/11/16 04:03:13;;;;;;;3.43;3.13;;;;;;;;;;5020056;28;20421;-43
2022/11/16 04:25:26;;;;;;;3.50;2.87;;;;;;;;;;5022790;28;20477;-42
2022/11/16 04:38:52;;;;;;;3.03;2.80;;;;;;;;;;5022488;28;20438;-43
2022/11/16 04:44:03;;;;;;;3.00;2.70;;;;;;;;;;5023882;28;20458;-44
2022/11/16 04:49:13;;;;;;;2.93;2.70;;;;;;;;;;5021141;28;20991;-43
2022/11/16 04:51:39;;;;;;;2.77;2.50;;;;;;;;;;5021054;28;20516;-43
2022/11/16 04:54:05;;;;;;;3.43;2.97;;;;;;;;;;5023627;28;20411;-43
2022/11/16 04:56:31;;;;;;;3.20;3.00;;;;;;;;;;5024561;28;20432;-42
2022/11/16 04:58:57;;;;;;;3.10;2.87;;;;;;;;;;5018851;28;20474;-43
2022/11/16 05:02:06;;;;;;;3.37;3.07;;;;;;;;;;5019797;28;20486;-42
2022/11/16 05:04:09;;;;;;;3.00;2.80;;;;;;;;;;5024434;28;20955;-43
2022/11/16 05:06:35;;;;;;;5.00;3.47;;;;;;;;;;5023444;28;20497;-42
2022/11/16 05:09:01;;;;;;;2.80;2.60;;;;;;;;;;5021779;28;20574;-42
2022/11/16 05:11:27;;;;;;;3.50;2.80;;;;;;;;;;5026275;28;20443;-43
2022/11/16 05:13:53;;;;;;;3.40;3.20;;;;;;;;;;5017154;28;20407;-44
2022/11/16 05:16:19;;;;;;;3.37;3.07;;;;;;;;;;5024274;28;20480;-43
2022/11/16 05:20:59;;;;;;;3.47;3.27;;;;;;;;;;5024186;28;20414;-44
2022/11/16 05:21:31;;;;;;;3.77;3.50;;;;;;;;;;5023751;28;20446;-43
2022/11/16 05:26:41;;;;;;;4.03;3.63;;;;;;;;;;5018983;28;20610;-42
2022/11/16 05:29:07;;;;;;;3.70;3.40;;;;;;;;;;5019202;28;20553;-42
2022/11/16 05:31:33;;;;;;;5.13;4.43;;;;;;;;;;5020280;28;20427;-42
2022/11/16 05:33:59;;;;;;;4.40;4.00;;;;;;;;;;5022527;28;20501;-43
2022/11/16 05:36:25;;;;;;;8.87;4.40;;;;;;;;;;5024436;28;20411;-43
2022/11/16 05:38:51;;;;;;;3.50;3.20;;;;;;;;;;5024725;28;20468;-42
2022/11/16 05:41:17;;;;;;;3.43;3.13;;;;;;;;;;5019476;28;20836;-42
2022/11/16 05:43:43;;;;;;;3.77;3.20;;;;;;;;;;5017332;28;20425;-42
2022/11/16 05:46:09;;;;;;;3.10;2.90;;;;;;;;;;5023929;28;20411;-43
2022/11/16 05:48:35;;;;;;;3.07;2.87;;;;;;;;;;5022846;28;20461;-42
2022/11/16 05:51:01;;;;;;;4.77;3.00;;;;;;;;;;5022111;28;20459;-42
2022/11/16 05:53:27;;;;;;;3.03;2.73;;;;;;;;;;5022568;28;20460;-42
2022/11/16 05:55:53;;;;;;;4.10;2.90;;;;;;;;;;5023168;28;20924;-43
2022/11/16 05:58:19;;;;;;;2.80;2.60;;;;;;;;;;5018486;28;20801;-42
2022/11/16 06:00:48;;;;;;;4.87;2.73;;;;;;;;;;5023706;28;20847;-43
2022/11/16 06:03:14;;;;;;;3.90;3.00;;;;;;;;;;5011110;28;20415;-43
2022/11/16 06:05:40;;;;;;;2.67;2.47;;;;;;;;;;5020304;28;20510;-43
2022/11/16 06:08:06;;;;;;;2.60;2.40;;;;;;;;;;5022713;28;20993;-44
2022/11/16 06:10:32;;;;;;;3.63;2.50;;;;;;;;;;5020265;28;20522;-43
2022/11/16 06:12:58;;;;;;;2.50;2.30;;;;;;;;;;5021476;28;20976;-43
2022/11/16 06:15:23;;;;;;;2.57;2.37;;;;;;;;;;5020615;28;20419;-45
2022/11/16 06:17:49;;;;;;;2.57;2.40;;;;;;;;;;5026039;28;20418;-43
2022/11/16 06:20:16;;;;;;;2.17;1.97;;;;;;;;;;5020080;28;20414;-43
2022/11/16 06:22:41;;;;;;;4.03;2.40;;;;;;;;;;5018413;28;20431;-43
2022/11/16 06:25:09;;;;;;;2.33;2.17;;;;;;;;;;5021043;28;20468;-43
2022/11/16 06:27:38;;;;;;;2.87;2.40;;;;;;;;;;5020055;28;20411;-43
2022/11/16 06:30:05;;;;;;;2.07;1.97;;;;;;;;;;5022112;28;20418;-43
2022/11/16 06:32:30;;;;;;;2.00;1.90;;;;;;;;;;5023907;28;20464;-43
2022/11/16 06:34:56;;;;;;;2.73;2.53;;;;;;;;;;5028303;28;20406;-43
2022/11/16 06:37:22;;;;;;;2.70;2.47;;;;;;;;;;5023443;28;20407;-43
2022/11/16 06:39:48;;;;;;;2.57;2.37;;;;;;;;;;5020299;28;20419;-43
2022/11/16 06:42:14;;;;;;;3.23;2.83;;;;;;;;;;5027191;28;20423;-43
2022/11/16 06:44:40;;;;;;;2.40;2.20;;;;;;;;;;5025722;28;20405;-43
2022/11/16 06:47:06;;;;;;;4.10;2.97;;;;;;;;;;5031880;28;20409;-43
2022/11/16 06:49:32;;;;;;;4.07;3.77;;;;;;;;;;5023791;28;20462;-43
2022/11/16 06:51:58;;;;;;;4.40;3.47;;;;;;;;;;5025927;28;20431;-43
2022/11/16 06:54:24;;;;;;;5.10;3.30;;;;;;;;;;5016614;28;20882;-43
2022/11/16 06:56:50;;;;;;;4.43;3.83;;;;;;;;;;5031373;28;20421;-43
2022/11/16 06:59:16;;;;;;;3.37;3.17;;;;;;;;;;5025574;28;20489;-43
2022/11/16 07:01:42;;;;;;;4.77;3.40;;;;;;;;;;5023287;28;20439;-43
2022/11/16 07:04:11;;;;;;;3.37;3.07;;;;;;;;;;5026142;28;20402;-43
2022/11/16 07:06:40;;;;;;;3.73;3.43;;;;;;;;;;5023614;28;20930;-43
2022/11/16 07:09:06;;;;;;;3.90;3.60;;;;;;;;;;5019018;28;20466;-43
2022/11/16 07:11:33;;;;;;;5.67;4.00;;;;;;;;;;5031955;28;21025;-43
2022/11/16 07:13:59;;;;;;;6.43;4.37;;;;;;;;;;5024743;28;20425;-43
2022/11/16 07:16:25;;;;;;;5.40;4.47;;;;;;;;;;5025044;28;20406;-43
2022/11/16 07:18:51;;;;;;;4.60;4.20;;;;;;;;;;5021125;28;20418;-43
2022/11/16 07:21:18;;;;;;;4.87;4.40;;;;;;;;;;5026139;28;20422;-43
2022/11/16 07:23:44;;;;;;;5.57;4.60;;;;;;;;;;5026594;28;20415;-43
2022/11/16 07:26:11;;;;;;;5.77;4.40;;;;;;;;;;5026348;28;20461;-43
2022/11/16 07:28:37;;;;;;;7.20;4.47;;;;;;;;;;5025683;28;20466;-43
2022/11/16 07:31:04;;;;;;;6.23;4.67;;;;;;;;;;5027165;28;20445;-43
2022/11/16 07:33:48;;;;;;;6.30;4.47;;;;;;;;;;5023567;28;20406;-43
2022/11/16 07:38:59;;;;;;;13.43;4.27;;;;;;;;;;5024400;28;20985;-43
2022/11/16 07:42:20;;;;;;;;;;;;;;;;;;;;;
2022/11/16 07:48:39;;;;;;;;;;;;;;;;;;;;;
2022/11/16 07:51:06;;;;;;;5.53;3.70;;;;;;;;;;4918315;29;20448;-45
2022/11/16 07:53:32;;;;;;;5.33;3.50;;;;;;;;;;4980689;28;20463;-45
2022/11/16 07:55:58;;;;;;;6.30;3.40;;;;;;;;;;5025790;28;20414;-45
2022/11/16 07:58:25;;;;;;;3.77;3.47;;;;;;;;;;5024247;28;20421;-45
2022/11/16 08:00:51;;;;;;;16.23;3.90;;;;;;;;;;5020292;28;20411;-43
2022/11/16 08:03:16;;;;;;;7.53;3.87;;;;;;;;;;5022019;28;20415;-43
2022/11/16 08:05:46;;;;;;;8.93;3.90;;;;;;;;;;5020878;28;20415;-42
2022/11/16 08:08:12;;;;;;;9.60;3.60;;;;;;;;;;5016628;28;20465;-42
2022/11/16 08:10:38;;;;;;;7.23;3.23;;;;;;;;;;5023031;28;20411;-42
2022/11/16 08:13:04;;;;;;;4.43;2.80;;;;;;;;;;5022777;28;20458;-43
2022/11/16 08:15:30;;;;;;;6.10;3.10;;;;;;;;;;5023346;28;20502;-43
2022/11/16 08:17:59;;;;;;;6.20;2.87;;;;;;;;;;5018718;28;20773;-43
2022/11/16 08:20:26;;;;;;;3.73;3.37;;;;;;;;;;5025005;28;20418;-43
2022/11/16 08:22:52;;;;;;;6.50;3.20;;;;;;;;;;5022957;28;20439;-43
2022/11/16 08:25:18;;;;;;;10.07;3.40;;;;;;;;;;5020683;28;20421;-42
2022/11/16 08:27:44;;;;;;;7.63;3.00;;;;;;;;;;5021111;28;20431;-43
2022/11/16 08:30:10;;;;;;;10.77;3.37;;;;;;;;;;5017936;28;20765;-42
2022/11/16 08:32:36;;;;;;;4.37;2.90;;;;;;;;;;5021521;28;20442;-43
2022/11/16 08:35:02;;;;;;;7.50;3.47;;;;;;;;;;5022694;28;20429;-43
2022/11/16 08:37:30;;;;;;;7.53;3.27;;;;;;;;;;5025627;28;20413;-42
2022/11/16 08:39:56;;;;;;;7.77;3.63;;;;;;;;;;5020997;28;20415;-42
2022/11/16 08:42:22;;;;;;;10.33;3.47;;;;;;;;;;5022802;28;20444;-42
2022/11/16 08:44:48;;;;;;;5.57;2.83;;;;;;;;;;5021714;28;20510;-42
2022/11/16 08:47:14;;;;;;;6.37;4.10;;;;;;;;;;5022333;28;20422;-42
2022/11/16 08:49:40;;;;;;;5.60;4.03;;;;;;;;;;5021092;28;20550;-42
2022/11/16 08:52:06;;;;;;;4.37;3.20;;;;;;;;;;5027667;28;20459;-43
2022/11/16 08:54:32;;;;;;;6.80;3.83;;;;;;;;;;5024034;28;20824;-42
2022/11/16 08:56:58;;;;;;;7.63;3.20;;;;;;;;;;5018778;28;20458;-43
2022/11/16 08:59:24;;;;;;;7.93;3.17;;;;;;;;;;5020821;28;20490;-42
2022/11/16 09:01:50;;;;;;;5.27;2.77;;;;;;;;;;5020728;28;20921;-43
2022/11/16 09:04:17;;;;;;;6.90;3.37;;;;;;;;;;5021038;28;20915;-43
2022/11/16 09:06:43;;;;;;;4.93;2.60;;;;;;;;;;5020953;28;20427;-42
2022/11/16 09:09:09;;;;;;;4.60;2.57;;;;;;;;;;5025056;28;20473;-43
2022/11/16 09:11:35;;;;;;;9.37;3.00;;;;;;;;;;5023481;28;20937;-42
2022/11/16 09:14:01;;;;;;;6.87;2.40;;;;;;;;;;5017706;28;20495;-43
2022/11/16 09:16:27;;;;;;;4.83;2.57;;;;;;;;;;5018390;28;20879;-43
2022/11/16 09:18:54;;;;;;;6.50;2.10;;;;;;;;;;5021660;28;20414;-43
2022/11/16 09:21:22;;;;;;;5.77;2.10;;;;;;;;;;5023674;28;20484;-43
2022/11/16 09:23:48;;;;;;;6.30;2.10;;;;;;;;;;5017686;28;20420;-43
2022/11/16 09:26:15;;;;;;;6.70;2.40;;;;;;;;;;5023331;28;20403;-43
2022/11/16 09:28:41;;;;;;;5.93;2.00;;;;;;;;;;5021636;28;20500;-43
2022/11/16 09:31:08;;;;;;;5.77;2.53;;;;;;;;;;5015277;28;20433;-43
2022/11/16 09:33:34;;;;;;;6.50;2.57;;;;;;;;;;5023830;28;20386;-43
2022/11/16 09:36:05;;;;;;;10.03;2.60;;;;;;;;;;5020412;28;20411;-43
2022/11/16 09:38:32;;;;;;;3.43;1.67;;;;;;;;;;5020679;28;20444;-43
2022/11/16 09:40:58;;;;;;;2.60;2.40;;;;;;;;;;5020248;28;20405;-43
2022/11/16 09:43:30;;;;;;;6.00;2.10;;;;;;;;;;5013885;28;20418;-43
2022/11/16 09:46:16;;;;;;;4.00;1.80;;;;;;;;;;5020400;28;20421;-43
2022/11/16 09:48:42;;;;;;;5.40;1.80;;;;;;;;;;5019957;28;20839;-43
2022/11/16 09:51:11;;;;;;;4.37;2.27;;;;;;;;;;5023509;28;20448;-43
2022/11/16 09:53:37;;;;;;;6.90;2.57;;;;;;;;;;5022416;28;20423;-42
2022/11/16 09:56:16;;;;;;;2.53;1.60;;;;;;;;;;5017501;28;20472;-43
2022/11/16 09:59:01;;;;;;;2.77;1.70;;;;;;;;;;5015899;28;20391;-42
2022/11/16 10:01:27;;;;;;;4.17;1.90;;;;;;;;;;5017741;28;20746;-42
2022/11/16 10:03:57;;;;;;;4.57;1.97;;;;;;;;;;5020269;28;20422;-42
2022/11/16 10:06:27;;;;;;;11.30;2.10;;;;;;;;;;5021715;28;20815;-42
2022/11/16 10:08:55;;;;;;;5.53;1.70;;;;;;;;;;5020919;28;20455;-42
2022/11/16 10:11:35;;;;;;;8.57;2.17;;;;;;;;;;5022877;28;20487;-42
2022/11/16 10:14:20;;;;;;;3.20;1.73;;;;;;;;;;5020785;28;20414;-42
2022/11/16 10:16:52;;;;;;;8.17;2.13;;;;;;;;;;5019977;28;20453;-42
2022/11/16 10:19:24;;;;;;;4.30;2.37;;;;;;;;;;5023797;28;20426;-42
2022/11/16 10:22:17;;;;;;;3.60;1.90;;;;;;;;;;5022810;28;20445;-42
2022/11/16 10:24:46;;;;;;;5.40;1.80;;;;;;;;;;5021591;28;20413;-42
2022/11/16 10:27:12;;;;;;;3.47;1.70;;;;;;;;;;5007635;28;20466;-42
2022/11/16 10:30:14;;;;;;;7.40;2.20;;;;;;;;;;5022926;28;20803;-42
2022/11/16 10:32:55;;;;;;;2.33;2.00;;;;;;;;;;4997705;28;20442;-42
2022/11/16 10:35:27;;;;;;;9.83;2.10;;;;;;;;;;5010474;28;20421;-43
2022/11/16 10:37:53;;;;;;;6.23;1.83;;;;;;;;;;5022967;28;20385;-43
2022/11/16 10:40:24;;;;;;;6.80;2.40;;;;;;;;;;5018337;28;20499;-43
2022/11/16 10:43:10;;;;;;;4.57;1.80;;;;;;;;;;5019945;28;20433;-43
2022/11/16 10:45:45;;;;;;;3.07;1.57;;;;;;;;;;5017304;28;20437;-43
2022/11/16 10:48:29;;;;;;;2.57;1.40;;;;;;;;;;5022868;28;20486;-43
2022/11/16 10:50:55;;;;;;;5.60;1.30;;;;;;;;;;5018344;28;20407;-43
2022/11/16 10:53:29;;;;;;;4.60;1.67;;;;;;;;;;5019846;28;20733;-43
2022/11/16 10:56:16;;;;;;;4.13;1.70;;;;;;;;;;5019768;28;20424;-43
2022/11/16 10:58:49;;;;;;;3.33;1.73;;;;;;;;;;5021352;28;20426;-42
2022/11/16 11:01:35;;;;;;;5.17;1.70;;;;;;;;;;5014372;28;20438;-42
2022/11/16 11:04:20;;;;;;;3.90;1.50;;;;;;;;;;5019508;28;20425;-43
2022/11/16 11:06:47;;;;;;;2.67;1.40;;;;;;;;;;5021320;28;20962;-42
2022/11/16 11:09:15;;;;;;;2.50;1.40;;;;;;;;;;5016010;28;20969;-43
2022/11/16 11:14:34;;;;;;;3.63;1.40;;;;;;;;;;5009619;28;20422;-43
2022/11/16 11:17:09;;;;;;;2.40;1.23;;;;;;;;;;5018058;28;20473;-43
2022/11/16 11:19:35;;;;;;;2.70;1.20;;;;;;;;;;5019229;28;20908;-43
2022/11/16 11:22:01;;;;;;;1.63;1.20;;;;;;;;;;5022684;28;20423;-44
2022/11/16 11:24:28;;;;;;;2.20;1.27;;;;;;;;;;5017257;28;20922;-44
2022/11/16 11:26:58;;;;;;;3.57;1.30;;;;;;;;;;5021975;28;20967;-44
2022/11/16 11:29:24;;;;;;;2.57;1.50;;;;;;;;;;5021170;28;20462;-44
2022/11/16 11:32:07;;;;;;;2.87;1.60;;;;;;;;;;5025812;28;20430;-43
2022/11/16 11:34:40;;;;;;;5.07;1.30;;;;;;;;;;5023414;28;20417;-43
2022/11/16 11:37:12;;;;;;;5.47;1.70;;;;;;;;;;5018227;28;20414;-43
2022/11/16 11:39:38;;;;;;;2.70;1.50;;;;;;;;;;5025642;28;20425;-44
2022/11/16 11:42:13;;;;;;;4.90;1.70;;;;;;;;;;5023513;28;20936;-44
2022/11/16 11:44:49;;;;;;;3.73;1.53;;;;;;;;;;5023460;28;20418;-42
2022/11/16 11:47:25;;;;;;;5.20;1.40;;;;;;;;;;5016079;28;20426;-43
2022/11/16 11:49:55;;;;;;;4.40;1.70;;;;;;;;;;5023438;28;20455;-44
2022/11/16 11:52:24;;;;;;;4.03;1.60;;;;;;;;;;5023131;28;20475;-44
2022/11/16 11:54:51;;;;;;;4.73;1.50;;;;;;;;;;5023579;28;20419;-43
2022/11/16 11:57:20;;;;;;;2.80;1.43;;;;;;;;;;5027237;28;20427;-43
2022/11/16 11:59:47;;;;;;;3.37;1.80;;;;;;;;;;5026303;28;20420;-43
2022/11/16 12:02:22;;;;;;;6.37;1.60;;;;;;;;;;5020480;28;20930;-43
2022/11/16 12:04:54;;;;;;;10.17;1.80;;;;;;;;;;5018101;28;20533;-43
2022/11/16 12:07:23;;;;;;;5.77;2.10;;;;;;;;;;5025685;28;20421;-43
2022/11/16 12:10:08;;;;;;;3.60;2.10;;;;;;;;;;5022646;28;20878;-42
2022/11/16 12:12:34;;;;;;;5.93;2.10;;;;;;;;;;5024425;28;20491;-43
2022/11/16 12:15:02;;;;;;;4.77;1.50;;;;;;;;;;5022885;28;20413;-42
2022/11/16 12:17:47;;;;;;;2.07;1.40;;;;;;;;;;5015384;28;20415;-42
2022/11/16 12:20:19;;;;;;;2.80;1.70;;;;;;;;;;5020209;28;20980;-43
2022/11/16 12:23:03;;;;;;;5.43;2.10;;;;;;;;;;5020826;28;20493;-42
2022/11/16 12:25:47;;;;;;;2.37;1.53;;;;;;;;;;5017890;28;20414;-43
2022/11/16 12:28:16;;;;;;;2.70;1.50;;;;;;;;;;5017162;28;20474;-43
2022/11/16 12:30:55;;;;;;;3.90;1.70;;;;;;;;;;5021426;28;20411;-43
2022/11/16 12:33:41;;;;;;;5.33;2.00;;;;;;;;;;5011384;28;20406;-43
2022/11/16 12:36:20;;;;;;;4.90;1.70;;;;;;;;;;5020856;28;20421;-43
2022/11/16 12:38:49;;;;;;;4.20;1.70;;;;;;;;;;5026441;28;20453;-43
2022/11/16 12:41:34;;;;;;;11.67;2.70;;;;;;;;;;5020625;28;20603;-42
2022/11/16 12:44:03;;;;;;;5.50;2.17;;;;;;;;;;5018055;28;20411;-43
2022/11/16 12:46:44;;;;;;;7.83;2.27;;;;;;;;;;5018816;28;20400;-43
2022/11/16 12:49:13;;;;;;;4.20;1.70;;;;;;;;;;5023777;28;20958;-42
2022/11/16 12:51:50;;;;;;;5.43;1.50;;;;;;;;;;5022388;28;20396;-43
2022/11/16 12:54:34;;;;;;;2.03;1.70;;;;;;;;;;5013185;28;20961;-42
2022/11/16 12:57:23;;;;;;;8.30;1.87;;;;;;;;;;5022472;28;20793;-43
2022/11/16 12:59:52;;;;;;;3.67;1.60;;;;;;;;;;5003266;28;20928;-43
2022/11/16 13:02:34;;;;;;;3.57;1.53;;;;;;;;;;5018392;28;20438;-43
2022/11/16 13:05:03;;;;;;;5.60;1.60;;;;;;;;;;5017488;28;20392;-42
2022/11/16 13:07:39;;;;;;;8.33;1.73;;;;;;;;;;5018766;28;20439;-42
2022/11/16 13:10:13;;;;;;;5.90;1.60;;;;;;;;;;4995098;28;20466;-43
2022/11/16 13:12:39;;;;;;;3.47;1.43;;;;;;;;;;4981255;28;1070127;-43
2022/11/16 13:15:11;;;;;;;3.60;1.23;;;;;;;;;;5020443;28;20189;-42
2022/11/16 13:17:38;;;;;;;1.50;1.10;;;;;;;;;;5009160;28;20429;-43
2022/11/16 13:20:07;;;;;;;5.90;1.77;;;;;;;;;;5016347;28;20460;-43
2022/11/16 13:22:35;;;;;;;5.70;1.80;;;;;;;;;;5021483;28;20437;-43
2022/11/16 13:25:16;;;;;;;1.80;1.40;;;;;;;;;;5028935;28;20407;-43
2022/11/16 13:27:56;;;;;;;5.70;1.83;;;;;;;;;;5017251;28;20424;-43
2022/11/16 13:30:38;;;;;;;4.70;1.57;;;;;;;;;;5013737;28;20381;-43
2022/11/16 13:33:04;;;;;;;4.73;1.40;;;;;;;;;;5021658;28;20803;-43
2022/11/16 13:35:30;;;;;;;2.90;1.37;;;;;;;;;;5020394;28;20407;-43
2022/11/16 13:38:00;;;;;;;4.90;1.60;;;;;;;;;;5019810;28;20560;-43
2022/11/16 13:40:27;;;;;;;1.90;1.40;;;;;;;;;;5018433;28;20412;-43
2022/11/16 13:43:00;;;;;;;3.00;1.43;;;;;;;;;;5015659;28;20433;-43
2022/11/16 13:45:29;;;;;;;2.63;1.50;;;;;;;;;;5018077;28;20815;-43
2022/11/16 13:47:56;;;;;;;2.33;1.33;;;;;;;;;;5021402;28;20445;-43
2022/11/16 13:50:25;;;;;;;6.23;3.07;;;;;;;;;;5027360;28;20448;-43
2022/11/16 13:52:54;;;;;;;4.90;1.83;;;;;;;;;;5025460;28;20437;-43
2022/11/16 13:55:27;;;;;;;7.80;1.80;;;;;;;;;;5028804;28;20861;-43
2022/11/16 13:57:54;;;;;;;3.67;1.87;;;;;;;;;;5031229;28;20431;-43
2022/11/16 14:00:24;;;;;;;3.50;1.50;;;;;;;;;;5023923;28;20422;-42
2022/11/16 14:03:10;;;;;;;5.17;1.70;;;;;;;;;;5031152;28;20914;-42
2022/11/16 14:05:40;;;;;;;3.87;1.67;;;;;;;;;;5023907;28;20508;-42
2022/11/16 14:08:19;;;;;;;3.30;1.60;;;;;;;;;;5018975;28;20471;-42
2022/11/16 14:10:44;;;;;;;1.93;1.27;;;;;;;;;;5016298;28;20961;-43
2022/11/16 14:13:32;;;;;;;5.00;1.83;;;;;;;;;;5034487;28;20440;-42
2022/11/16 14:16:16;;;;;;;3.63;1.90;;;;;;;;;;5032749;28;20956;-42
2022/11/16 14:18:43;;;;;;;3.67;1.60;;;;;;;;;;5021473;28;20390;-43
2022/11/16 14:21:13;;;;;;;3.07;1.50;;;;;;;;;;5021433;28;20449;-42
2022/11/16 14:23:48;;;;;;;4.87;1.60;;;;;;;;;;5030416;28;20383;-42
2022/11/16 14:26:14;;;;;;;4.50;2.00;;;;;;;;;;5031346;28;20802;-42
2022/11/16 14:29:08;;;;;;;4.30;1.60;;;;;;;;;;5034518;28;20424;-43
2022/11/16 14:31:51;;;;;;;3.20;1.97;;;;;;;;;;5016582;28;20442;-42
2022/11/16 14:34:22;;;;;;;2.47;1.77;;;;;;;;;;5015686;28;20421;-42
2022/11/16 14:36:49;;;;;;;5.10;1.87;;;;;;;;;;5022250;28;20477;-42
2022/11/16 14:39:29;;;;;;;5.50;1.60;;;;;;;;;;5016587;28;20389;-42
2022/11/16 14:41:57;;;;;;;4.10;1.60;;;;;;;;;;5021283;28;20467;-42
2022/11/16 14:44:25;;;;;;;4.70;1.50;;;;;;;;;;5022568;28;20422;-42
2022/11/16 14:46:51;;;;;;;4.83;1.30;;;;;;;;;;5019155;28;20459;-42
2022/11/16 14:49:17;;;;;;;4.43;1.50;;;;;;;;;;5021417;28;20457;-42
2022/11/16 14:51:46;;;;;;;4.13;1.90;;;;;;;;;;5019118;28;20427;-42
2022/11/16 14:54:18;;;;;;;2.00;1.80;;;;;;;;;;5020657;28;20378;-43
2022/11/16 14:56:57;;;;;;;5.13;1.60;;;;;;;;;;5023742;28;20409;-42
2022/11/16 14:59:23;;;;;;;6.37;1.80;;;;;;;;;;5018760;28;20964;-43
2022/11/16 15:01:50;;;;;;;1.47;1.37;;;;;;;;;;5027460;28;20437;-43
2022/11/16 15:04:17;;;;;;;13.10;1.60;;;;;;;;;;5022207;28;20458;-43
2022/11/16 15:06:45;;;;;;;4.13;1.63;;;;;;;;;;5020042;28;20400;-42
2022/11/16 15:09:17;;;;;;;3.53;1.67;;;;;;;;;;5018273;28;20511;-43
2022/11/16 15:14:32;;;;;;;6.50;1.83;;;;;;;;;;5018092;28;20766;-43
2022/11/16 15:16:59;;;;;;;4.30;1.60;;;;;;;;;;5024783;28;20928;-42
2022/11/16 15:19:29;;;;;;;5.43;2.27;;;;;;;;;;5023851;28;20417;-43
2022/11/16 15:21:56;;;;;;;1.93;1.70;;;;;;;;;;5023838;28;20445;-42
2022/11/16 15:24:23;;;;;;;5.90;2.03;;;;;;;;;;5022709;28;20411;-42
2022/11/16 15:26:49;;;;;;;4.43;1.90;;;;;;;;;;5029047;28;20504;-42
2022/11/16 15:29:19;;;;;;;5.10;1.90;;;;;;;;;;5023422;28;20454;-42
2022/11/16 15:31:46;;;;;;;3.00;1.73;;;;;;;;;;5020607;28;20437;-42
2022/11/16 15:34:15;;;;;;;3.40;1.73;;;;;;;;;;5024073;28;20956;-42
2022/11/16 15:36:41;;;;;;;2.80;1.80;;;;;;;;;;5022689;28;20417;-42
2022/11/16 15:39:18;;;;;;;3.77;1.90;;;;;;;;;;5025441;28;20460;-42
2022/11/16 15:41:45;;;;;;;10.13;2.67;;;;;;;;;;5023837;28;20435;-43
2022/11/16 15:44:15;;;;;;;4.77;1.80;;;;;;;;;;5018021;28;20431;-42
2022/11/16 15:46:44;;;;;;;4.47;2.10;;;;;;;;;;5025012;28;20889;-42
2022/11/16 15:49:30;;;;;;;2.83;1.70;;;;;;;;;;5018852;28;20462;-43
2022/11/16 15:51:57;;;;;;;4.57;1.83;;;;;;;;;;5023639;28;20439;-42
2022/11/16 15:55:02;;;;;;;2.03;1.67;;;;;;;;;;5025797;28;20470;-42
2022/11/16 15:57:17;;;;;;;6.87;2.50;;;;;;;;;;5015500;28;20407;-43